Newport (Shropshire), United Kingdom
Current Conditions -  °F | °C
As of 11:50 AM on Thursday 18 Dec 2014 (Local Time) from EGOS Reporting Station
Drizzle Drizzle  
Wind Chill: 55°   Ceiling: 1800
Heat Index: 55°   Visibility: 6mi
Dew Point: 52°   Wind: 26mph
Humidity: 88%   Direction: 230°SW
Pressure: 29.68"   Gusts: NA
Location:  52.77°N, 2.38°W
Report Text: EGOS 181150Z 23023KT 9999 -DZ FEW013 BKN018 BKN060 13/11 Q1005 WHT NOSIG
Loading
Personal Weather Stations






























Interactive Weather Map New forecast layout! Learn more

10-Day Weather Forecast

Advertisements
Track Severe Weather on mobile